Time;durP1;ratioP1;P1;durP2;ratioP2;P2;SDS_P1;SDS_P2;PMS_P1;PMS_P2;Temp;Humidity;BMP_temperature;BMP_pressure;BME280_temperature;BME280_humidity;BME280_pressure;Samples;Min_cycle;Max_cycle;Signal;HPM_P1;HPM_P2
2023/09/29 00:01:38;;;;;;;0.30;0.30;;;15.30;99.90;;;;;;5071467;28;20068;-69
2023/09/29 00:04:05;;;;;;;2.38;0.20;;;15.30;99.90;;;;;;5057840;28;20037;-69
2023/09/29 00:06:34;;;;;;;2.53;0.40;;;15.30;99.90;;;;;;5043892;28;20037;-69
2023/09/29 00:09:06;;;;;;;0.10;0.10;;;15.30;99.90;;;;;;5045685;28;20047;-69
2023/09/29 00:11:32;;;;;;;0.65;0.20;;;15.30;99.90;;;;;;5039234;28;20029;-69
2023/09/29 00:13:58;;;;;;;0.05;0.05;;;15.30;99.90;;;;;;5025612;28;20454;-68
2023/09/29 00:16:23;;;;;;;1.98;0.40;;;15.30;99.90;;;;;;5038473;28;20051;-68
2023/09/29 00:18:49;;;;;;;1.20;1.08;;;15.30;99.90;;;;;;5042012;28;20115;-68
2023/09/29 00:21:14;;;;;;;0.73;0.65;;;15.30;99.90;;;;;;5043667;28;20491;-69
2023/09/29 00:23:40;;;;;;;0.63;0.25;;;15.30;99.90;;;;;;5069013;28;20037;-69
2023/09/29 00:26:06;;;;;;;2.13;0.82;;;15.30;99.90;;;;;;5040624;28;20044;-68
2023/09/29 00:28:32;;;;;;;2.90;0.30;;;15.30;99.90;;;;;;5036989;28;20048;-68
2023/09/29 00:30:58;;;;;;;0.75;0.38;;;15.30;99.90;;;;;;5040866;28;20048;-68
2023/09/29 00:33:23;;;;;;;0.32;0.30;;;15.30;99.90;;;;;;5044378;28;20044;-68
2023/09/29 00:35:49;;;;;;;0.10;0.10;;;15.30;99.90;;;;;;5044319;28;20049;-68
2023/09/29 00:38:14;;;;;;;0.03;0.03;;;15.30;99.90;;;;;;5039556;28;20052;-69
2023/09/29 00:40:40;;;;;;;0.17;0.17;;;15.30;99.90;;;;;;5035176;28;20060;-69
2023/09/29 00:43:06;;;;;;;0.15;0.15;;;15.30;99.90;;;;;;5040185;28;20166;-69
2023/09/29 00:45:33;;;;;;;11.55;2.33;;;15.30;99.90;;;;;;5045183;28;20028;-69
2023/09/29 00:48:07;;;;;;;0.52;0.20;;;15.30;99.90;;;;;;5039266;28;20086;-69
2023/09/29 00:50:34;;;;;;;0.68;0.20;;;15.30;99.90;;;;;;5039421;28;20040;-69
2023/09/29 00:53:06;;;;;;;0.13;0.13;;;15.30;99.90;;;;;;5039779;28;21776;-69
2023/09/29 00:55:32;;;;;;;0.20;0.20;;;15.30;99.90;;;;;;5040398;28;20415;-69
2023/09/29 00:57:59;;;;;;;0.73;0.60;;;15.30;99.90;;;;;;5039916;28;20049;-69
2023/09/29 01:02:53;;;;;;;0.73;0.73;;;15.30;99.90;;;;;;5040135;28;20105;-69
2023/09/29 01:05:19;;;;;;;0.10;0.10;;;15.30;99.90;;;;;;5041931;28;20036;-69
2023/09/29 01:07:46;;;;;;;0.47;0.30;;;15.30;99.90;;;;;;5040792;28;20032;-69
2023/09/29 01:10:13;;;;;;;1.42;0.20;;;15.30;99.90;;;;;;5038452;28;20045;-69
2023/09/29 01:12:40;;;;;;;0.30;0.30;;;15.30;99.90;;;;;;5037244;28;20041;-69
2023/09/29 01:15:06;;;;;;;0.20;0.20;;;15.30;99.90;;;;;;5043231;28;20048;-69
2023/09/29 01:17:32;;;;;;;0.75;0.75;;;15.30;99.90;;;;;;5039216;28;20045;-68
2023/09/29 01:19:57;;;;;;;8.93;0.30;;;15.30;99.90;;;;;;5035536;28;20051;-69
2023/09/29 01:22:23;;;;;;;0.20;0.20;;;15.30;99.90;;;;;;5042285;28;20036;-69
2023/09/29 01:24:48;;;;;;;1.60;0.57;;;15.30;99.90;;;;;;5042167;28;20071;-69
2023/09/29 01:27:14;;;;;;;0.20;0.20;;;15.30;99.90;;;;;;5040413;28;20036;-69
2023/09/29 01:29:41;;;;;;;0.25;0.20;;;15.30;99.90;;;;;;5040360;28;20435;-69
2023/09/29 01:32:11;;;;;;;0.90;0.90;;;15.30;99.90;;;;;;5075002;28;20556;-69
2023/09/29 01:34:37;;;;;;;0.65;0.65;;;15.30;99.90;;;;;;5075646;28;20047;-69
2023/09/29 01:37:03;;;;;;;0.20;0.20;;;15.30;99.90;;;;;;5041552;28;20899;-69
2023/09/29 01:39:29;;;;;;;0.10;0.10;;;15.30;99.90;;;;;;5040729;28;20384;-69
2023/09/29 01:41:56;;;;;;;0.10;0.10;;;15.30;99.90;;;;;;5042398;28;20062;-69
2023/09/29 01:44:21;;;;;;;0.10;0.10;;;15.30;99.90;;;;;;5061088;28;20506;-69
2023/09/29 01:46:49;;;;;;;0.38;0.38;;;15.30;99.90;;;;;;5036144;28;20064;-69
2023/09/29 01:49:17;;;;;;;0.57;0.57;;;15.30;99.90;;;;;;5038339;28;20068;-69
2023/09/29 01:51:45;;;;;;;0.20;0.20;;;15.30;99.90;;;;;;5033997;28;20041;-69
2023/09/29 01:54:11;;;;;;;0.30;0.15;;;15.30;99.90;;;;;;5032734;28;20127;-69
2023/09/29 01:56:37;;;;;;;0.10;0.10;;;15.30;99.90;;;;;;5068417;28;20140;-69
2023/09/29 01:59:02;;;;;;;2.60;0.20;;;15.40;99.90;;;;;;5032901;28;20056;-69
2023/09/29 02:01:29;;;;;;;0.10;0.10;;;15.40;99.90;;;;;;5038701;28;20051;-69
2023/09/29 02:03:55;;;;;;;0.30;0.30;;;15.40;99.90;;;;;;5038740;28;20479;-69
2023/09/29 02:06:20;;;;;;;0.10;0.10;;;15.40;99.90;;;;;;5037935;28;20087;-69
2023/09/29 02:08:46;;;;;;;0.20;0.20;;;15.40;99.90;;;;;;5028522;28;20480;-69
2023/09/29 02:11:12;;;;;;;0.45;0.20;;;15.40;99.90;;;;;;5040979;28;20048;-69
2023/09/29 02:13:38;;;;;;;0.10;0.10;;;15.40;99.90;;;;;;5032239;28;20041;-69
2023/09/29 02:16:10;;;;;;;0.17;0.17;;;15.50;99.90;;;;;;5038719;28;20103;-69
2023/09/29 02:18:36;;;;;;;0.22;0.20;;;15.40;99.90;;;;;;5037545;28;20051;-69
2023/09/29 02:21:06;;;;;;;0.20;0.20;;;15.50;99.90;;;;;;5055931;28;20667;-69
2023/09/29 02:23:33;;;;;;;0.10;0.00;;;15.50;99.90;;;;;;5037132;28;20043;-69
2023/09/29 02:26:00;;;;;;;0.63;0.20;;;15.50;99.90;;;;;;5039225;28;20044;-69
2023/09/29 02:28:30;;;;;;;0.10;0.10;;;15.50;99.90;;;;;;5031116;28;20683;-69
2023/09/29 02:31:02;;;;;;;0.32;0.25;;;15.50;99.90;;;;;;5031985;28;20052;-69
2023/09/29 02:33:28;;;;;;;0.10;0.10;;;15.50;99.90;;;;;;5038309;28;21514;-69
2023/09/29 02:35:53;;;;;;;0.00;0.00;;;15.50;99.90;;;;;;5047119;28;20044;-69
2023/09/29 02:38:19;;;;;;;0.52;0.32;;;15.50;99.90;;;;;;5034987;28;20040;-69
2023/09/29 02:40:47;;;;;;;0.10;0.10;;;15.50;99.90;;;;;;5071912;28;20037;-69
2023/09/29 02:43:12;;;;;;;0.00;0.00;;;15.60;99.90;;;;;;5041462;28;20525;-69
2023/09/29 02:45:40;;;;;;;0.10;0.10;;;15.60;99.90;;;;;;5058139;28;20036;-69
2023/09/29 02:48:06;;;;;;;0.00;0.00;;;15.60;99.90;;;;;;5045919;28;20041;-69
2023/09/29 02:50:35;;;;;;;1.65;0.52;;;15.60;99.90;;;;;;5038159;28;20049;-69
2023/09/29 02:53:05;;;;;;;0.10;0.10;;;15.60;99.90;;;;;;5035876;28;20045;-69
2023/09/29 02:55:31;;;;;;;0.55;0.55;;;15.60;99.90;;;;;;5043411;28;20033;-69
2023/09/29 02:57:56;;;;;;;0.20;0.20;;;15.60;99.90;;;;;;5040774;28;20051;-69
2023/09/29 03:00:23;;;;;;;2.20;0.22;;;15.60;99.90;;;;;;5042203;28;20567;-69
2023/09/29 03:02:51;;;;;;;0.00;0.00;;;15.60;99.90;;;;;;5035731;28;22658;-69
2023/09/29 03:05:18;;;;;;;0.40;0.40;;;15.60;99.90;;;;;;5039467;28;20448;-69
2023/09/29 03:07:44;;;;;;;0.38;0.38;;;15.60;99.90;;;;;;5039839;28;20176;-69
2023/09/29 03:10:13;;;;;;;0.28;0.10;;;15.60;99.90;;;;;;5062623;28;20071;-69
2023/09/29 03:12:38;;;;;;;1.10;1.10;;;15.60;99.90;;;;;;5039137;28;20033;-69
2023/09/29 03:15:09;;;;;;;0.45;0.22;;;15.60;99.90;;;;;;5037594;28;20082;-69
2023/09/29 03:17:35;;;;;;;0.15;0.15;;;15.60;99.90;;;;;;5037683;28;20044;-69
2023/09/29 03:20:00;;;;;;;0.20;0.20;;;15.60;99.90;;;;;;5038587;28;20483;-69
2023/09/29 03:22:27;;;;;;;1.92;0.60;;;15.60;99.90;;;;;;5073129;28;20067;-69
2023/09/29 03:24:52;;;;;;;0.35;0.20;;;15.60;99.90;;;;;;5059239;28;20590;-69
2023/09/29 03:27:18;;;;;;;0.20;0.20;;;15.60;99.90;;;;;;5037000;28;20072;-69
2023/09/29 03:29:44;;;;;;;0.20;0.20;;;15.60;99.90;;;;;;5039085;28;20064;-69
2023/09/29 03:32:10;;;;;;;0.10;0.10;;;15.60;99.90;;;;;;5072652;28;20044;-69
2023/09/29 03:34:35;;;;;;;0.10;0.10;;;15.60;99.90;;;;;;5033097;28;20037;-69
2023/09/29 03:37:01;;;;;;;0.20;0.20;;;15.60;99.90;;;;;;5025481;28;20040;-69
2023/09/29 03:39:27;;;;;;;0.10;0.10;;;15.60;99.90;;;;;;5037434;28;20025;-69
2023/09/29 03:41:52;;;;;;;0.17;0.10;;;15.60;99.90;;;;;;5046916;28;20035;-69
2023/09/29 03:44:18;;;;;;;0.90;0.55;;;15.60;99.90;;;;;;5035034;28;20183;-69
2023/09/29 03:46:44;;;;;;;0.00;0.00;;;15.70;99.90;;;;;;5045729;28;20159;-69
2023/09/29 03:49:12;;;;;;;0.00;0.00;;;15.70;99.90;;;;;;5039157;28;20190;-69
2023/09/29 03:51:38;;;;;;;0.30;0.20;;;15.70;99.90;;;;;;5044628;28;20040;-69
2023/09/29 03:54:04;;;;;;;3.00;0.52;;;15.70;99.90;;;;;;5041260;28;20533;-69
2023/09/29 03:56:29;;;;;;;0.40;0.40;;;15.80;99.90;;;;;;5040580;28;20036;-69
2023/09/29 03:58:55;;;;;;;0.20;0.20;;;15.80;99.90;;;;;;5066737;28;20077;-69
2023/09/29 04:01:22;;;;;;;0.22;0.22;;;15.80;99.90;;;;;;5025835;28;20076;-69
2023/09/29 04:03:47;;;;;;;0.47;0.47;;;15.90;99.90;;;;;;5034297;28;20116;-69
2023/09/29 04:06:14;;;;;;;0.10;0.10;;;15.90;99.90;;;;;;5041955;28;20552;-69
2023/09/29 04:08:40;;;;;;;0.22;0.22;;;15.90;99.90;;;;;;5040210;28;20151;-69
2023/09/29 04:11:06;;;;;;;0.50;0.32;;;16.00;99.90;;;;;;5070577;28;20135;-69
2023/09/29 04:13:31;;;;;;;0.05;0.05;;;16.00;99.90;;;;;;5043394;28;20043;-69
2023/09/29 04:15:59;;;;;;;0.08;0.08;;;16.00;99.90;;;;;;5046864;28;20048;-69
2023/09/29 04:18:24;;;;;;;0.10;0.10;;;16.00;99.90;;;;;;5035732;28;20075;-69
2023/09/29 04:20:50;;;;;;;0.47;0.47;;;16.00;99.90;;;;;;5074538;28;20064;-69
2023/09/29 04:23:16;;;;;;;0.25;0.25;;;16.10;99.90;;;;;;5042202;28;20159;-69
2023/09/29 04:25:43;;;;;;;1.60;0.30;;;16.10;99.90;;;;;;5043216;28;20040;-69
2023/09/29 04:28:09;;;;;;;0.10;0.10;;;16.10;99.90;;;;;;5033008;28;20680;-69
2023/09/29 04:30:34;;;;;;;0.15;0.13;;;16.10;99.90;;;;;;5039310;28;20506;-69
2023/09/29 04:33:00;;;;;;;0.75;0.40;;;16.10;99.90;;;;;;5042397;28;20522;-69
2023/09/29 04:35:26;;;;;;;0.10;0.10;;;16.10;99.90;;;;;;5042061;28;20064;-69
2023/09/29 04:37:52;;;;;;;0.28;0.28;;;16.10;99.90;;;;;;5074128;28;20047;-69
2023/09/29 04:40:18;;;;;;;0.30;0.30;;;16.20;99.90;;;;;;5034729;28;20106;-69
2023/09/29 04:42:43;;;;;;;0.10;0.10;;;16.20;99.90;;;;;;5037463;28;20037;-69
2023/09/29 04:45:09;;;;;;;0.35;0.30;;;16.20;99.90;;;;;;5038422;28;20044;-69
2023/09/29 04:47:35;;;;;;;0.10;0.10;;;16.20;99.90;;;;;;5036195;28;20044;-69
2023/09/29 04:50:00;;;;;;;3.63;0.30;;;16.20;99.90;;;;;;5036095;28;20131;-69
2023/09/29 04:52:26;;;;;;;2.17;0.50;;;16.20;99.90;;;;;;5038805;28;20418;-69
2023/09/29 04:54:52;;;;;;;0.20;0.20;;;16.20;99.90;;;;;;5031649;28;20033;-69
2023/09/29 04:57:18;;;;;;;0.20;0.20;;;16.30;99.90;;;;;;5036212;28;20052;-69
2023/09/29 04:59:44;;;;;;;0.32;0.20;;;16.20;99.90;;;;;;5068300;28;20043;-69
2023/09/29 05:02:10;;;;;;;0.30;0.10;;;16.20;99.90;;;;;;5057120;28;20488;-69
2023/09/29 05:04:35;;;;;;;0.20;0.20;;;16.20;99.90;;;;;;5036117;28;20040;-69
2023/09/29 05:07:01;;;;;;;0.30;0.30;;;16.20;99.90;;;;;;5041227;28;20045;-69
2023/09/29 05:09:26;;;;;;;6.00;1.63;;;16.30;99.90;;;;;;5035433;28;20131;-69
2023/09/29 05:11:52;;;;;;;0.20;0.20;;;16.30;99.90;;;;;;5070106;28;20045;-69
2023/09/29 05:14:17;;;;;;;0.10;0.10;;;16.30;99.90;;;;;;5038876;28;20056;-69
2023/09/29 05:16:43;;;;;;;0.63;0.30;;;16.30;99.90;;;;;;5046117;28;20186;-69
2023/09/29 05:19:09;;;;;;;0.10;0.10;;;16.30;99.90;;;;;;5033633;28;21082;-69
2023/09/29 05:21:36;;;;;;;0.52;0.52;;;16.30;99.90;;;;;;5042588;28;20063;-69
2023/09/29 05:24:02;;;;;;;0.98;0.40;;;16.30;99.90;;;;;;5026976;28;20044;-69
2023/09/29 05:26:28;;;;;;;0.65;0.20;;;16.30;99.90;;;;;;5045774;28;20040;-69
2023/09/29 05:28:55;;;;;;;0.20;0.20;;;16.30;99.90;;;;;;5062895;28;20055;-69
2023/09/29 05:31:20;;;;;;;0.10;0.10;;;16.30;99.90;;;;;;5064133;28;21435;-69
2023/09/29 05:33:46;;;;;;;0.08;0.08;;;16.30;99.90;;;;;;5042415;28;20040;-69
2023/09/29 05:36:11;;;;;;;0.00;0.00;;;16.30;99.90;;;;;;5048914;28;20305;-69
2023/09/29 05:38:37;;;;;;;2.22;0.50;;;16.30;99.90;;;;;;5042234;28;20109;-69
2023/09/29 05:41:03;;;;;;;0.20;0.20;;;16.30;99.90;;;;;;5044475;28;20485;-69
2023/09/29 05:43:28;;;;;;;0.13;0.13;;;16.30;99.90;;;;;;5046909;28;20067;-69
2023/09/29 05:45:54;;;;;;;0.00;0.00;;;16.30;99.90;;;;;;5050194;28;20174;-69
2023/09/29 05:48:19;;;;;;;0.03;0.03;;;16.30;99.90;;;;;;5050374;28;20043;-69
2023/09/29 05:50:45;;;;;;;0.10;0.10;;;16.30;99.90;;;;;;5044003;28;20086;-69
2023/09/29 05:53:11;;;;;;;0.10;0.10;;;16.30;99.90;;;;;;5045955;28;20055;-69
2023/09/29 05:55:37;;;;;;;0.10;0.10;;;16.30;99.90;;;;;;5039699;28;20044;-69
2023/09/29 05:58:03;;;;;;;0.10;0.10;;;16.30;99.90;;;;;;5044008;28;20512;-69
2023/09/29 06:00:28;;;;;;;0.08;0.08;;;16.30;99.90;;;;;;5043785;28;20183;-69
2023/09/29 06:02:54;;;;;;;1.77;0.30;;;16.30;99.90;;;;;;5042485;28;20043;-69
2023/09/29 06:05:20;;;;;;;0.10;0.10;;;16.40;99.90;;;;;;5047677;28;20063;-69
2023/09/29 06:07:45;;;;;;;0.10;0.10;;;16.40;99.90;;;;;;5036590;28;20036;-69
2023/09/29 06:10:11;;;;;;;0.30;0.30;;;16.40;99.90;;;;;;5039945;28;20219;-69
2023/09/29 06:12:37;;;;;;;0.20;0.20;;;16.40;99.90;;;;;;5042578;28;20051;-69
2023/09/29 06:15:03;;;;;;;0.10;0.10;;;16.40;99.90;;;;;;5042818;28;20045;-69
2023/09/29 06:17:30;;;;;;;0.17;0.15;;;16.40;99.90;;;;;;5046861;28;20036;-69
2023/09/29 06:19:55;;;;;;;0.30;0.20;;;16.40;99.90;;;;;;5045707;28;20037;-70
2023/09/29 06:22:21;;;;;;;0.22;0.10;;;16.40;99.90;;;;;;5044351;28;20098;-69
2023/09/29 06:24:47;;;;;;;0.20;0.20;;;16.50;99.90;;;;;;5043535;28;20120;-70
2023/09/29 06:27:13;;;;;;;0.10;0.10;;;16.50;99.90;;;;;;5037526;28;20052;-70
2023/09/29 06:29:41;;;;;;;0.20;0.20;;;16.50;99.90;;;;;;5043761;28;20430;-70
2023/09/29 06:32:10;;;;;;;0.85;0.75;;;16.50;99.90;;;;;;5043402;28;20042;-70
2023/09/29 06:34:36;;;;;;;0.10;0.10;;;16.50;99.90;;;;;;5031521;28;20041;-69
2023/09/29 06:37:02;;;;;;;0.08;0.08;;;16.50;99.90;;;;;;5046575;28;20049;-69
2023/09/29 06:39:28;;;;;;;0.22;0.22;;;16.50;99.90;;;;;;5058494;28;20043;-69
2023/09/29 06:41:54;;;;;;;0.10;0.10;;;16.60;99.90;;;;;;5048320;28;20044;-69
2023/09/29 06:44:19;;;;;;;0.10;0.10;;;16.60;99.90;;;;;;5036629;28;20044;-69
2023/09/29 06:46:45;;;;;;;0.93;0.30;;;16.60;99.90;;;;;;5050401;28;20119;-70
2023/09/29 06:49:10;;;;;;;0.20;0.20;;;16.60;99.90;;;;;;5043691;28;20450;-69
2023/09/29 06:51:36;;;;;;;1.00;0.80;;;16.70;99.90;;;;;;5050970;28;20494;-68
2023/09/29 06:54:02;;;;;;;0.45;0.45;;;16.70;99.90;;;;;;5048219;28;20037;-68
2023/09/29 06:56:29;;;;;;;0.20;0.20;;;16.70;99.90;;;;;;5040347;28;20127;-67
2023/09/29 06:58:55;;;;;;;0.10;0.10;;;16.70;99.90;;;;;;5031278;28;20045;-67
2023/09/29 07:01:21;;;;;;;0.75;0.75;;;16.70;99.90;;;;;;5036813;28;20128;-67
2023/09/29 07:03:47;;;;;;;0.10;0.10;;;16.70;99.90;;;;;;5036065;28;20052;-68
2023/09/29 07:06:13;;;;;;;0.20;0.20;;;16.80;99.90;;;;;;5045055;28;20041;-67
2023/09/29 07:08:39;;;;;;;2.55;0.30;;;16.80;99.90;;;;;;5048958;28;20044;-67
2023/09/29 07:11:04;;;;;;;0.38;0.22;;;16.80;99.90;;;;;;5063656;28;20043;-67
2023/09/29 07:13:30;;;;;;;1.08;0.80;;;16.80;99.90;;;;;;5046118;28;20547;-67
2023/09/29 07:15:56;;;;;;;0.50;0.50;;;16.90;99.90;;;;;;5039414;28;20072;-68
2023/09/29 07:18:21;;;;;;;0.25;0.20;;;16.90;99.90;;;;;;5046187;28;20068;-68
2023/09/29 07:20:52;;;;;;;0.32;0.32;;;16.90;99.90;;;;;;5044863;28;20459;-68
2023/09/29 07:23:21;;;;;;;0.20;0.20;;;17.00;99.90;;;;;;5032574;28;20484;-68
2023/09/29 07:25:47;;;;;;;2.53;0.80;;;17.00;99.90;;;;;;5038789;28;20390;-68
2023/09/29 07:28:15;;;;;;;1.42;0.82;;;17.10;99.90;;;;;;5054812;28;20044;-68
2023/09/29 07:30:41;;;;;;;0.10;0.10;;;17.20;99.90;;;;;;5038933;28;20052;-68
2023/09/29 07:33:07;;;;;;;0.43;0.38;;;17.30;99.90;;;;;;5036722;28;20049;-68
2023/09/29 07:35:32;;;;;;;0.38;0.25;;;17.40;99.90;;;;;;5046639;28;20377;-69
2023/09/29 07:38:00;;;;;;;0.40;0.32;;;17.40;99.90;;;;;;5045363;28;20076;-69
2023/09/29 07:40:25;;;;;;;0.35;0.20;;;17.50;99.90;;;;;;5044171;28;20116;-69
2023/09/29 07:42:51;;;;;;;0.55;0.55;;;17.60;99.90;;;;;;5043009;28;20047;-69
2023/09/29 07:45:18;;;;;;;0.45;0.20;;;17.60;99.90;;;;;;5069800;28;20040;-69
2023/09/29 07:47:44;;;;;;;3.10;0.30;;;17.70;99.90;;;;;;5047362;28;20047;-69
2023/09/29 07:50:10;;;;;;;0.10;0.10;;;17.80;99.90;;;;;;5039657;28;20476;-69
2023/09/29 07:52:38;;;;;;;1.00;0.63;;;17.90;99.90;;;;;;5049378;28;20044;-69
2023/09/29 07:55:08;;;;;;;0.47;0.47;;;17.90;99.90;;;;;;5034285;28;20049;-69
2023/09/29 07:57:34;;;;;;;0.25;0.10;;;18.00;99.90;;;;;;5049680;28;20051;-70
2023/09/29 08:00:00;;;;;;;0.32;0.15;;;18.10;99.90;;;;;;5049050;28;20044;-70
2023/09/29 08:02:27;;;;;;;0.20;0.20;;;18.10;99.90;;;;;;5048987;28;20040;-69
2023/09/29 08:04:53;;;;;;;1.17;1.08;;;18.20;99.90;;;;;;5047735;28;20033;-70
2023/09/29 08:07:19;;;;;;;0.75;0.47;;;18.30;99.90;;;;;;5053630;28;20491;-69
2023/09/29 08:09:48;;;;;;;0.22;0.22;;;18.30;99.90;;;;;;5043045;28;20047;-70
2023/09/29 08:12:14;;;;;;;0.88;0.50;;;18.30;99.90;;;;;;5058978;28;20041;-69
2023/09/29 08:14:40;;;;;;;0.00;0.00;;;18.30;99.90;;;;;;5035702;28;20048;-70
2023/09/29 08:17:05;;;;;;;0.35;0.30;;;18.40;99.90;;;;;;5051630;28;20047;-70
2023/09/29 08:19:32;;;;;;;1.35;0.90;;;18.50;99.90;;;;;;5032739;28;20037;-70
2023/09/29 08:21:58;;;;;;;0.32;0.32;;;18.50;99.90;;;;;;5066674;28;20384;-69
2023/09/29 08:24:23;;;;;;;0.30;0.30;;;18.50;99.90;;;;;;5035432;28;20043;-69
2023/09/29 08:26:49;;;;;;;0.15;0.15;;;18.60;99.90;;;;;;5049199;28;20035;-70
2023/09/29 08:29:16;;;;;;;0.22;0.17;;;18.60;99.90;;;;;;5068213;28;20123;-70
2023/09/29 08:31:45;;;;;;;0.32;0.30;;;18.70;99.90;;;;;;5044794;28;20047;-70
2023/09/29 08:34:11;;;;;;;0.08;0.08;;;18.70;99.90;;;;;;5052263;28;20040;-70
2023/09/29 08:36:36;;;;;;;0.63;0.50;;;18.80;99.90;;;;;;5049038;28;20373;-69
2023/09/29 08:39:02;;;;;;;0.40;0.40;;;18.90;99.90;;;;;;5039404;28;20095;-69
2023/09/29 08:41:29;;;;;;;1.00;0.95;;;18.90;99.90;;;;;;5046653;28;20057;-70
2023/09/29 08:43:55;;;;;;;0.63;0.60;;;19.00;99.90;;;;;;5040318;28;20051;-70
2023/09/29 08:46:21;;;;;;;0.25;0.25;;;19.10;99.90;;;;;;5066289;28;20547;-70
2023/09/29 08:48:48;;;;;;;0.43;0.13;;;19.20;99.90;;;;;;5042688;28;20044;-70
2023/09/29 08:51:15;;;;;;;0.30;0.20;;;19.20;99.90;;;;;;5040364;28;20052;-71
2023/09/29 08:53:42;;;;;;;3.05;0.50;;;19.30;99.90;;;;;;5043845;28;20036;-69
2023/09/29 08:56:11;;;;;;;0.47;0.45;;;19.40;99.90;;;;;;5049980;28;20132;-70
2023/09/29 08:58:37;;;;;;;0.68;0.20;;;19.50;99.90;;;;;;5034093;28;20072;-69
2023/09/29 09:01:03;;;;;;;0.60;0.50;;;19.70;99.90;;;;;;5057401;28;20413;-69
2023/09/29 09:03:29;;;;;;;2.28;0.40;;;19.70;99.90;;;;;;5058968;28;20517;-69
2023/09/29 09:05:55;;;;;;;0.57;0.57;;;19.80;99.90;;;;;;5033183;28;20127;-70
2023/09/29 09:08:23;;;;;;;1.17;0.25;;;19.90;99.90;;;;;;5065732;28;20033;-69
2023/09/29 09:10:50;;;;;;;0.30;0.30;;;20.00;99.90;;;;;;5075943;28;20056;-72
2023/09/29 09:13:20;;;;;;;0.32;0.30;;;20.00;99.90;;;;;;5025848;28;20406;-70
2023/09/29 09:15:58;;;;;;;1.20;0.70;;;19.90;99.90;;;;;;5048435;28;20036;-70
2023/09/29 09:18:27;;;;;;;0.30;0.30;;;20.00;99.90;;;;;;5052962;28;20040;-70
2023/09/29 09:20:54;;;;;;;0.93;0.50;;;19.90;99.90;;;;;;5042216;28;20060;-70
2023/09/29 09:23:20;;;;;;;0.57;0.57;;;20.00;99.90;;;;;;5040291;28;20328;-69
2023/09/29 09:25:45;;;;;;;0.10;0.10;;;20.00;99.90;;;;;;5033933;28;20037;-70
2023/09/29 09:28:19;;;;;;;2.58;0.55;;;20.00;99.90;;;;;;5054155;28;20095;-69
2023/09/29 09:30:59;;;;;;;0.52;0.52;;;20.00;99.90;;;;;;5039790;28;21066;-69
2023/09/29 09:33:27;;;;;;;0.63;0.63;;;20.00;99.90;;;;;;5051521;28;20458;-70
2023/09/29 09:36:09;;;;;;;1.85;1.55;;;20.00;99.90;;;;;;5040886;28;20044;-70
2023/09/29 09:38:35;;;;;;;0.75;0.75;;;20.00;99.90;;;;;;5055908;28;20043;-70
2023/09/29 09:41:01;;;;;;;0.32;0.32;;;20.10;99.90;;;;;;5041415;28;20132;-70
2023/09/29 09:43:29;;;;;;;0.47;0.47;;;20.00;99.90;;;;;;5069561;28;20116;-69
2023/09/29 09:46:03;;;;;;;0.52;0.25;;;20.00;99.90;;;;;;5046492;28;20036;-70
2023/09/29 09:48:49;;;;;;;0.63;0.63;;;20.10;99.90;;;;;;5043484;28;20084;-70
2023/09/29 09:51:35;;;;;;;0.65;0.65;;;20.00;99.90;;;;;;5041927;28;20040;-69
2023/09/29 09:54:08;;;;;;;2.28;1.08;;;20.00;99.90;;;;;;5049889;28;20141;-68
2023/09/29 09:56:46;;;;;;;0.30;0.20;;;20.00;99.90;;;;;;5044478;28;20059;-69
2023/09/29 09:59:14;;;;;;;0.57;0.35;;;20.00;99.90;;;;;;5043096;28;20090;-70
2023/09/29 10:01:41;;;;;;;0.52;0.28;;;20.10;99.90;;;;;;5040368;28;20129;-69
2023/09/29 10:04:12;;;;;;;0.20;0.20;;;20.10;99.90;;;;;;5042431;28;20037;-69
2023/09/29 10:06:39;;;;;;;0.25;0.20;;;20.10;99.90;;;;;;5043196;28;20033;-69
2023/09/29 10:09:12;;;;;;;0.73;0.73;;;20.10;99.90;;;;;;5057998;28;20123;-68
2023/09/29 10:11:42;;;;;;;3.05;0.60;;;20.00;99.90;;;;;;5044017;28;20127;-68
2023/09/29 10:14:08;;;;;;;0.32;0.32;;;19.90;99.90;;;;;;5072175;28;20378;-68
2023/09/29 10:16:41;;;;;;;0.30;0.30;;;19.90;99.90;;;;;;5038284;28;20072;-69
2023/09/29 10:19:16;;;;;;;;;;;19.80;99.90;;;;;;5041346;28;20041;-70
2023/09/29 10:21:46;;;;;;;0.40;0.40;;;19.80;99.90;;;;;;5041840;28;19969;-67
2023/09/29 10:24:28;;;;;;;0.22;0.22;;;19.90;99.90;;;;;;5050570;28;20113;-69
2023/09/29 10:26:55;;;;;;;2.03;0.82;;;20.00;99.90;;;;;;5037975;28;20098;-69
2023/09/29 10:29:29;;;;;;;1.13;0.82;;;20.10;99.90;;;;;;5037582;28;20041;-68
2023/09/29 10:32:14;;;;;;;0.65;0.57;;;20.20;99.90;;;;;;5050181;28;20040;-69
2023/09/29 10:34:40;;;;;;;0.88;0.88;;;20.30;99.90;;;;;;5044694;28;20570;-70
2023/09/29 10:37:06;;;;;;;0.35;0.35;;;20.40;99.90;;;;;;5038893;28;20528;-71
2023/09/29 10:39:33;;;;;;;1.70;1.27;;;20.50;99.90;;;;;;5048551;28;20115;-68
2023/09/29 10:42:12;;;;;;;1.90;0.63;;;20.60;99.90;;;;;;5049520;28;20037;-69
2023/09/29 10:44:47;;;;;;;1.05;0.35;;;20.60;99.90;;;;;;5042158;28;20518;-69
2023/09/29 10:47:14;;;;;;;1.95;1.63;;;20.60;99.90;;;;;;5047149;28;20079;-69
2023/09/29 10:49:45;;;;;;;1.85;0.47;;;20.60;99.90;;;;;;5043162;28;20132;-70
2023/09/29 10:52:22;;;;;;;0.70;0.52;;;20.70;99.90;;;;;;5040315;28;20102;-69
2023/09/29 10:54:55;;;;;;;0.55;0.45;;;20.60;99.90;;;;;;5047664;28;20048;-69
2023/09/29 10:57:21;;;;;;;1.27;0.80;;;20.70;99.90;;;;;;5041876;28;20052;-67
2023/09/29 10:59:48;;;;;;;0.52;0.52;;;20.60;99.90;;;;;;5042290;28;20094;-69
2023/09/29 11:02:14;;;;;;;4.05;1.33;;;20.50;99.90;;;;;;5077100;28;20454;-68
2023/09/29 11:04:40;;;;;;;1.83;1.40;;;20.50;99.90;;;;;;5081818;28;20036;-69
2023/09/29 11:07:06;;;;;;;3.03;1.33;;;20.50;99.90;;;;;;5043006;28;20045;-69
2023/09/29 11:09:32;;;;;;;10.25;2.42;;;20.40;99.90;;;;;;5042407;28;20041;-70
2023/09/29 11:11:58;;;;;;;0.85;0.85;;;20.40;99.90;;;;;;5047648;28;20041;-69
2023/09/29 11:14:36;;;;;;;2.80;0.93;;;20.30;99.90;;;;;;5049121;28;20063;-70
2023/09/29 11:17:02;;;;;;;2.63;2.40;;;20.30;99.90;;;;;;5053120;28;20043;-68
2023/09/29 11:19:31;;;;;;;0.30;0.30;;;20.30;99.90;;;;;;5058556;28;20418;-69
2023/09/29 11:22:00;;;;;;;0.85;0.68;;;20.40;99.90;;;;;;5049847;28;20036;-69
2023/09/29 11:24:26;;;;;;;0.68;0.68;;;20.40;99.90;;;;;;5046010;28;20041;-69
2023/09/29 11:26:55;;;;;;;1.48;0.40;;;20.50;99.90;;;;;;5045956;28;20044;-70
2023/09/29 11:29:22;;;;;;;0.75;0.70;;;20.50;99.90;;;;;;5046892;28;20052;-70
2023/09/29 11:31:47;;;;;;;2.30;0.60;;;20.50;99.90;;;;;;5079140;28;20120;-70
2023/09/29 11:34:15;;;;;;;1.08;0.40;;;20.70;99.90;;;;;;5037792;28;20044;-69
2023/09/29 11:36:43;;;;;;;0.95;0.55;;;20.70;99.90;;;;;;5048326;28;20068;-70
2023/09/29 11:39:09;;;;;;;1.55;0.70;;;20.80;99.90;;;;;;5042005;28;20443;-70
2023/09/29 11:41:34;;;;;;;2.20;0.70;;;20.90;99.90;;;;;;5073134;28;20047;-69
2023/09/29 11:44:00;;;;;;;0.52;0.52;;;20.90;99.90;;;;;;5051288;28;20403;-70
2023/09/29 11:46:25;;;;;;;0.75;0.55;;;21.00;99.90;;;;;;5051974;28;20384;-70
2023/09/29 11:48:51;;;;;;;0.25;0.25;;;21.00;99.90;;;;;;5049450;28;20519;-68
2023/09/29 11:51:16;;;;;;;2.40;0.40;;;21.00;99.90;;;;;;5051429;28;20044;-69
2023/09/29 11:53:45;;;;;;;0.63;0.50;;;20.90;99.90;;;;;;5044759;28;20067;-69
2023/09/29 11:56:27;;;;;;;1.00;0.60;;;20.90;99.90;;;;;;5049456;28;20045;-69
2023/09/29 11:58:53;;;;;;;4.72;0.88;;;20.80;99.90;;;;;;5040883;28;20044;-69
2023/09/29 12:01:19;;;;;;;0.88;0.77;;;20.80;99.90;;;;;;5046299;28;20052;-69
2023/09/29 12:03:45;;;;;;;3.20;0.88;;;20.80;99.90;;;;;;5060685;28;20464;-69
2023/09/29 12:06:11;;;;;;;1.30;1.20;;;20.80;99.90;;;;;;5044301;28;20403;-68
2023/09/29 12:08:37;;;;;;;0.30;0.30;;;20.70;99.90;;;;;;5049716;28;20036;-68
2023/09/29 12:11:07;;;;;;;0.43;0.22;;;20.60;99.90;;;;;;5037809;28;20487;-71
2023/09/29 12:13:36;;;;;;;1.00;0.90;;;20.50;99.90;;;;;;5049194;28;20055;-69
2023/09/29 12:16:04;;;;;;;1.75;0.70;;;20.40;99.90;;;;;;5045035;28;20044;-69
2023/09/29 12:18:29;;;;;;;0.22;0.22;;;20.20;99.90;;;;;;5042522;28;20033;-67
2023/09/29 12:20:56;;;;;;;1.20;0.32;;;19.90;99.90;;;;;;5064538;28;20102;-68
2023/09/29 12:23:21;;;;;;;0.20;0.20;;;19.70;99.90;;;;;;5042443;28;20116;-67
2023/09/29 12:25:47;;;;;;;0.10;0.10;;;19.60;99.90;;;;;;5045848;28;20135;-67
2023/09/29 12:28:13;;;;;;;0.52;0.38;;;19.50;99.90;;;;;;5037217;28;20129;-69
2023/09/29 12:30:43;;;;;;;0.32;0.32;;;19.40;99.90;;;;;;5049851;28;20407;-69
2023/09/29 12:33:10;;;;;;;2.72;0.80;;;19.40;99.90;;;;;;5044819;28;20496;-66
2023/09/29 12:35:36;;;;;;;0.13;0.13;;;19.40;99.90;;;;;;5039323;28;20044;-68
2023/09/29 12:38:01;;;;;;;0.57;0.57;;;19.30;99.90;;;;;;5057333;28;20447;-69
2023/09/29 12:40:27;;;;;;;0.40;0.40;;;19.20;99.90;;;;;;5049537;28;20040;-69
2023/09/29 12:42:53;;;;;;;0.32;0.32;;;19.20;99.90;;;;;;5050245;28;20048;-71
2023/09/29 12:45:22;;;;;;;0.57;0.57;;;19.20;99.90;;;;;;5051316;28;20059;-69
2023/09/29 12:47:52;;;;;;;0.20;0.20;;;19.10;99.90;;;;;;5046078;28;20041;-68
2023/09/29 12:50:20;;;;;;;1.08;0.13;;;18.80;99.90;;;;;;5054864;28;20498;-71